createdAt,value
2022-07-29T00:01:19.138Z,4.00
2022-07-29T00:03:48.345Z,3.80
2022-07-29T00:06:16.925Z,3.27
2022-07-29T00:08:45.254Z,3.67
2022-07-29T00:11:13.518Z,3.63
2022-07-29T00:13:41.802Z,3.67
2022-07-29T00:16:10.110Z,4.07
2022-07-29T00:18:40.476Z,4.10
2022-07-29T00:21:08.938Z,3.60
2022-07-29T00:23:37.161Z,4.23
2022-07-29T00:26:05.441Z,4.27
2022-07-29T00:28:33.632Z,3.80
2022-07-29T00:31:02.007Z,4.07
2022-07-29T00:33:30.996Z,4.00
2022-07-29T00:35:59.568Z,3.70
2022-07-29T00:38:27.759Z,4.00
2022-07-29T00:40:56.070Z,4.27
2022-07-29T00:43:24.390Z,3.57
2022-07-29T00:45:52.692Z,3.93
2022-07-29T00:48:20.882Z,3.43
2022-07-29T00:50:49.247Z,3.13
2022-07-29T00:53:18.900Z,3.27
2022-07-29T00:55:47.183Z,4.00
2022-07-29T00:58:16.006Z,3.33
2022-07-29T01:00:45.493Z,3.20
2022-07-29T01:03:13.842Z,3.47
2022-07-29T01:05:50.327Z,3.17
2022-07-29T01:08:21.243Z,3.40
2022-07-29T01:10:49.479Z,3.40
2022-07-29T01:13:17.650Z,3.27
2022-07-29T01:15:49.297Z,3.83
2022-07-29T01:18:22.157Z,2.83
2022-07-29T01:21:06.385Z,2.97
2022-07-29T01:24:01.581Z,3.10
2022-07-29T01:26:44.570Z,3.00
2022-07-29T01:29:35.823Z,3.83
2022-07-29T01:32:08.360Z,2.80
2022-07-29T01:34:49.290Z,3.10
2022-07-29T01:37:22.727Z,3.07
2022-07-29T01:39:52.183Z,2.60
2022-07-29T01:42:25.685Z,2.67
2022-07-29T01:44:58.263Z,2.67
2022-07-29T01:47:29.040Z,2.90
2022-07-29T01:49:57.774Z,2.77
2022-07-29T01:52:28.724Z,2.90
2022-07-29T01:54:59.160Z,2.70
2022-07-29T01:57:28.851Z,2.77
2022-07-29T01:59:59.111Z,2.77
2022-07-29T02:02:27.611Z,2.77
2022-07-29T02:04:56.775Z,2.40
2022-07-29T02:07:25.437Z,2.47
2022-07-29T02:09:53.769Z,2.63
2022-07-29T02:12:21.962Z,2.23
2022-07-29T02:14:51.547Z,2.23
2022-07-29T02:17:23.750Z,2.30
2022-07-29T02:19:52.041Z,2.30
2022-07-29T02:22:21.250Z,2.10
2022-07-29T02:24:49.493Z,2.47
2022-07-29T02:27:17.703Z,2.37
2022-07-29T02:29:45.948Z,2.73
2022-07-29T02:32:14.240Z,2.13
2022-07-29T02:34:43.881Z,2.47
2022-07-29T02:37:12.206Z,2.10
2022-07-29T02:39:41.220Z,1.87
2022-07-29T02:42:10.730Z,2.60
2022-07-29T02:44:38.974Z,2.60
2022-07-29T02:47:12.422Z,2.50
2022-07-29T02:49:42.315Z,2.17
2022-07-29T02:52:15.061Z,2.23
2022-07-29T02:54:44.810Z,2.17
2022-07-29T02:57:17.031Z,2.00
2022-07-29T02:59:45.719Z,2.17
2022-07-29T03:02:13.942Z,2.00
2022-07-29T03:04:42.721Z,1.97
2022-07-29T03:07:12.401Z,2.20
2022-07-29T03:09:40.962Z,2.30
2022-07-29T03:12:09.649Z,2.20
2022-07-29T03:14:37.893Z,2.20
2022-07-29T03:17:06.072Z,2.43
2022-07-29T03:19:34.615Z,2.33
2022-07-29T03:22:02.922Z,2.40
2022-07-29T03:24:33.414Z,2.10
2022-07-29T03:27:01.662Z,2.37
2022-07-29T03:29:32.988Z,2.53
2022-07-29T03:32:01.504Z,2.20
2022-07-29T03:34:30.949Z,2.30
2022-07-29T03:36:59.212Z,2.10
2022-07-29T03:39:29.748Z,2.17
2022-07-29T03:41:59.454Z,2.10
2022-07-29T03:44:27.642Z,2.17
2022-07-29T03:46:56.398Z,2.17
2022-07-29T03:49:24.686Z,2.10
2022-07-29T03:51:53.001Z,2.20
2022-07-29T03:54:21.664Z,2.23
2022-07-29T03:56:50.334Z,2.67
2022-07-29T03:59:20.547Z,2.27
2022-07-29T04:01:48.891Z,2.50
2022-07-29T04:04:17.723Z,2.53
2022-07-29T04:06:48.470Z,2.30
2022-07-29T04:09:16.792Z,2.57
2022-07-29T04:12:03.738Z,2.37
2022-07-29T04:14:34.001Z,2.43
2022-07-29T04:17:02.406Z,1.97
2022-07-29T04:19:30.781Z,2.17
2022-07-29T04:21:58.980Z,2.17
2022-07-29T04:24:27.195Z,2.00
2022-07-29T04:26:55.583Z,2.20
2022-07-29T04:29:23.788Z,2.27
2022-07-29T04:31:53.441Z,2.10
2022-07-29T04:34:21.600Z,2.10
2022-07-29T04:36:49.794Z,2.13
2022-07-29T04:39:22.738Z,2.70
2022-07-29T04:41:52.492Z,2.50
2022-07-29T04:44:26.530Z,2.23
2022-07-29T04:46:59.018Z,2.60
2022-07-29T04:49:27.320Z,2.30
2022-07-29T04:51:55.561Z,2.60
2022-07-29T04:54:23.791Z,2.50
2022-07-29T04:56:53.026Z,2.50
2022-07-29T04:59:21.260Z,2.40
2022-07-29T05:01:49.571Z,2.40
2022-07-29T05:04:19.858Z,2.63
2022-07-29T05:06:48.577Z,2.27
2022-07-29T05:09:16.752Z,2.40
2022-07-29T05:11:45.015Z,2.40
2022-07-29T05:14:13.345Z,2.50
2022-07-29T05:16:43.001Z,2.33
2022-07-29T05:19:14.344Z,2.73
2022-07-29T05:21:44.349Z,2.40
2022-07-29T05:24:12.835Z,2.67
2022-07-29T05:26:41.704Z,2.63
2022-07-29T05:29:43.960Z,2.50
2022-07-29T05:31:58.304Z,2.50
2022-07-29T05:34:27.057Z,2.60
2022-07-29T05:36:56.756Z,2.60
2022-07-29T05:39:49.090Z,2.80
2022-07-29T05:42:13.205Z,2.80
2022-07-29T05:44:41.566Z,2.83
2022-07-29T05:47:09.885Z,2.47
2022-07-29T05:49:38.556Z,2.30
2022-07-29T05:52:08.339Z,2.87
2022-07-29T05:54:36.874Z,2.90
2022-07-29T05:57:05.299Z,2.50
2022-07-29T05:59:33.567Z,2.63
2022-07-29T06:02:01.861Z,2.50
2022-07-29T06:04:30.307Z,2.50
2022-07-29T06:06:58.561Z,2.70
2022-07-29T06:09:29.278Z,2.80
2022-07-29T06:11:58.378Z,2.63
2022-07-29T06:14:26.734Z,2.90
2022-07-29T06:16:55.269Z,2.80
2022-07-29T06:19:23.586Z,3.00
2022-07-29T06:21:52.094Z,2.60
2022-07-29T06:24:20.485Z,2.53
2022-07-29T06:26:50.573Z,3.30
2022-07-29T06:29:18.806Z,2.70
2022-07-29T06:31:46.987Z,2.97
2022-07-29T06:34:15.569Z,2.53
2022-07-29T06:36:43.974Z,2.83
2022-07-29T06:39:12.349Z,2.60
2022-07-29T06:41:40.622Z,3.20
2022-07-29T06:44:10.283Z,2.60
2022-07-29T06:46:38.717Z,2.67
2022-07-29T06:49:07.113Z,3.00
2022-07-29T06:51:35.384Z,2.80
2022-07-29T06:54:05.917Z,2.87
2022-07-29T06:56:39.625Z,2.60
2022-07-29T06:59:10.384Z,2.80
2022-07-29T07:01:39.196Z,2.60
2022-07-29T07:04:07.589Z,2.47
2022-07-29T07:06:35.743Z,2.63
2022-07-29T07:09:03.895Z,2.63
2022-07-29T07:11:32.087Z,3.30
2022-07-29T07:14:03.488Z,2.83
2022-07-29T07:16:33.910Z,2.77
2022-07-29T07:19:02.420Z,2.60
2022-07-29T07:21:31.081Z,2.90
2022-07-29T07:23:59.824Z,2.97
2022-07-29T07:26:28.195Z,2.70
2022-07-29T07:28:56.364Z,3.60
2022-07-29T07:31:24.762Z,3.20
2022-07-29T07:33:55.114Z,2.90
2022-07-29T07:36:23.585Z,3.10
2022-07-29T07:38:51.798Z,3.00
2022-07-29T07:41:20.016Z,3.20
2022-07-29T07:43:48.195Z,3.43
2022-07-29T07:46:16.653Z,3.30
2022-07-29T07:48:45.480Z,3.07
2022-07-29T07:51:15.244Z,2.70
2022-07-29T07:53:43.430Z,3.10
2022-07-29T07:56:12.689Z,2.85
2022-07-29T07:58:41.174Z,2.72
2022-07-29T08:01:09.472Z,3.05
2022-07-29T08:03:37.668Z,3.03
2022-07-29T08:06:06.006Z,2.65
2022-07-29T08:08:35.604Z,2.83
2022-07-29T08:11:09.136Z,2.72
2022-07-29T08:13:38.859Z,2.85
2022-07-29T08:16:13.989Z,3.38
2022-07-29T08:18:42.984Z,3.25
2022-07-29T08:21:11.153Z,3.30
2022-07-29T08:23:59.612Z,3.03
2022-07-29T08:26:29.084Z,3.20
2022-07-29T08:28:57.263Z,2.90
2022-07-29T08:31:25.537Z,3.17
2022-07-29T08:33:53.701Z,2.75
2022-07-29T08:36:23.143Z,13.50
2022-07-29T08:38:52.648Z,3.75
2022-07-29T08:41:21.002Z,3.17
2022-07-29T08:43:49.294Z,3.13
2022-07-29T08:46:18.172Z,3.22
2022-07-29T08:48:46.753Z,2.78
2022-07-29T08:51:15.915Z,2.70
2022-07-29T08:53:44.885Z,3.13
2022-07-29T08:56:15.674Z,3.25
2022-07-29T08:58:44.248Z,3.25
2022-07-29T09:01:18.460Z,3.08
2022-07-29T09:03:48.300Z,3.15
2022-07-29T09:06:16.934Z,3.13
2022-07-29T09:08:45.111Z,3.28
2022-07-29T09:11:14.815Z,3.35
2022-07-29T09:13:42.984Z,3.17
2022-07-29T09:16:11.283Z,3.17
2022-07-29T09:18:40.345Z,3.10
2022-07-29T09:21:27.385Z,3.20
2022-07-29T09:24:06.593Z,4.05
2022-07-29T09:26:38.469Z,3.30
2022-07-29T09:29:13.602Z,2.85
2022-07-29T09:31:43.526Z,3.53
2022-07-29T09:34:12.211Z,3.13
2022-07-29T09:36:43.318Z,3.83
2022-07-29T09:39:11.443Z,3.17
2022-07-29T09:41:48.733Z,3.00
2022-07-29T09:44:18.160Z,2.78
2022-07-29T09:47:00.250Z,3.25
2022-07-29T09:49:28.657Z,3.40
2022-07-29T09:52:09.684Z,3.10
2022-07-29T09:54:40.608Z,2.70
2022-07-29T09:57:13.599Z,2.90
2022-07-29T09:59:49.981Z,2.90
2022-07-29T10:02:23.550Z,3.17
2022-07-29T10:04:52.278Z,3.38
2022-07-29T10:07:20.701Z,3.13
2022-07-29T10:09:55.457Z,3.50
2022-07-29T10:12:25.134Z,3.50
2022-07-29T10:14:53.450Z,3.22
2022-07-29T10:17:21.637Z,3.03
2022-07-29T10:19:50.037Z,3.15
2022-07-29T10:22:36.842Z,3.67
2022-07-29T10:25:07.204Z,2.80
2022-07-29T10:27:37.071Z,3.03
2022-07-29T10:30:06.669Z,3.30
2022-07-29T10:32:41.300Z,2.92
2022-07-29T10:35:26.042Z,2.92
2022-07-29T10:38:24.787Z,3.13
2022-07-29T10:41:19.553Z,2.90
2022-07-29T10:43:51.395Z,3.03
2022-07-29T10:46:20.695Z,3.00
2022-07-29T10:49:12.105Z,3.00
2022-07-29T10:52:01.029Z,2.80
2022-07-29T10:54:47.257Z,3.35
2022-07-29T10:57:53.733Z,2.65
2022-07-29T11:00:31.988Z,3.00
2022-07-29T11:03:01.343Z,2.97
2022-07-29T11:05:40.782Z,3.03
2022-07-29T11:08:25.967Z,2.78
2022-07-29T11:11:32.446Z,3.22
2022-07-29T11:14:00.743Z,3.00
2022-07-29T11:17:00.617Z,2.90
2022-07-29T11:19:30.564Z,3.15
2022-07-29T11:21:59.604Z,3.05
2022-07-29T11:24:30.218Z,3.10
2022-07-29T11:27:17.990Z,2.85
2022-07-29T11:29:55.544Z,3.33
2022-07-29T11:32:29.317Z,3.13
2022-07-29T11:35:37.111Z,2.70
2022-07-29T11:38:31.948Z,2.90
2022-07-29T11:41:25.565Z,2.78
2022-07-29T11:43:54.778Z,3.20
2022-07-29T11:46:45.755Z,3.08
2022-07-29T11:49:22.019Z,2.95
2022-07-29T11:52:02.828Z,3.10
2022-07-29T11:54:33.628Z,3.05
2022-07-29T11:57:22.095Z,2.70
2022-07-29T11:59:50.786Z,2.90
2022-07-29T12:05:11.135Z,3.00
2022-07-29T12:07:03.269Z,3.10
2022-07-29T12:07:40.979Z,2.95
2022-07-29T12:10:11.590Z,2.88
2022-07-29T12:12:53.304Z,2.55
2022-07-29T12:15:22.612Z,3.40
2022-07-29T12:17:50.852Z,3.22
2022-07-29T12:20:26.532Z,3.05
2022-07-29T12:22:55.883Z,3.20
2022-07-29T12:25:32.302Z,2.78
2022-07-29T12:28:02.023Z,2.72
2022-07-29T12:30:45.062Z,3.30
2022-07-29T12:33:18.516Z,2.90
2022-07-29T12:36:03.485Z,3.00
2022-07-29T12:38:35.871Z,3.03
2022-07-29T12:41:04.859Z,2.60
2022-07-29T12:43:33.313Z,2.72
2022-07-29T12:46:13.161Z,3.08
2022-07-29T12:48:41.841Z,3.08
2022-07-29T12:51:12.836Z,3.00
2022-07-29T12:53:41.272Z,2.80
2022-07-29T12:56:33.116Z,2.90
2022-07-29T12:59:00.186Z,2.97
2022-07-29T13:01:28.644Z,3.10
2022-07-29T13:03:59.643Z,2.60
2022-07-29T13:06:34.107Z,3.10
2022-07-29T13:09:08.274Z,3.10
2022-07-29T13:11:37.848Z,2.97
2022-07-29T13:14:07.130Z,2.50
2022-07-29T13:16:35.582Z,2.90
2022-07-29T13:19:11.399Z,2.70
2022-07-29T13:21:41.189Z,2.83
2022-07-29T13:24:09.900Z,2.63
2022-07-29T13:26:41.798Z,2.63
2022-07-29T13:29:10.458Z,2.78
2022-07-29T13:31:38.780Z,2.70
2022-07-29T13:34:07.108Z,2.88
2022-07-29T13:36:39.962Z,3.20
2022-07-29T13:39:12.362Z,2.63
2022-07-29T13:41:41.378Z,3.22
2022-07-29T13:44:09.652Z,3.20
2022-07-29T13:46:39.516Z,2.90
2022-07-29T13:49:08.461Z,2.80
2022-07-29T13:51:36.661Z,3.25
2022-07-29T13:54:04.945Z,3.28
2022-07-29T13:56:35.149Z,3.20
2022-07-29T13:59:21.471Z,3.22
2022-07-29T14:05:40.958Z,3.35
2022-07-29T14:08:09.140Z,3.40
2022-07-29T14:10:37.369Z,3.13
2022-07-29T14:13:06.912Z,3.67
2022-07-29T14:15:53.737Z,3.88
2022-07-29T14:18:21.930Z,3.20
2022-07-29T14:20:50.568Z,3.83
2022-07-29T14:23:20.228Z,3.22
2022-07-29T14:25:49.547Z,3.70
2022-07-29T14:28:19.255Z,3.22
2022-07-29T14:30:47.475Z,3.70
2022-07-29T14:33:16.115Z,2.50
2022-07-29T14:35:44.787Z,3.05
2022-07-29T14:38:13.138Z,3.00
2022-07-29T14:40:41.396Z,3.17
2022-07-29T14:43:09.615Z,3.20
2022-07-29T14:45:39.197Z,3.08
2022-07-29T14:48:07.720Z,3.55
2022-07-29T14:50:35.992Z,3.45
2022-07-29T14:53:04.169Z,3.40
2022-07-29T14:55:32.527Z,3.17
2022-07-29T14:58:09.755Z,3.28
2022-07-29T15:00:42.088Z,3.05
2022-07-29T15:03:11.557Z,3.47
2022-07-29T15:05:40.065Z,3.10
2022-07-29T15:08:09.207Z,3.40
2022-07-29T15:10:37.583Z,2.90
2022-07-29T15:13:05.817Z,3.40
2022-07-29T15:15:34.146Z,3.35
2022-07-29T15:18:03.728Z,3.15
2022-07-29T15:20:32.099Z,3.08
2022-07-29T15:23:00.343Z,2.90
2022-07-29T15:25:28.647Z,3.38
2022-07-29T15:28:01.151Z,2.92
2022-07-29T15:30:33.343Z,3.20
2022-07-29T15:33:04.440Z,2.95
2022-07-29T15:35:32.875Z,3.00
2022-07-29T15:38:01.205Z,3.15
2022-07-29T15:40:29.719Z,3.00
2022-07-29T15:42:58.397Z,2.95
2022-07-29T15:45:26.814Z,2.90
2022-07-29T15:48:00.364Z,3.13
2022-07-29T15:50:30.132Z,3.13
2022-07-29T15:52:58.383Z,3.20
2022-07-29T15:55:26.694Z,2.97
2022-07-29T15:57:58.569Z,2.85
2022-07-29T16:00:28.648Z,2.97
2022-07-29T16:02:57.536Z,3.08
2022-07-29T16:05:26.118Z,2.78
2022-07-29T16:07:55.728Z,3.20
2022-07-29T16:10:24.148Z,2.88
2022-07-29T16:12:52.372Z,3.15
2022-07-29T16:15:20.652Z,3.38
2022-07-29T16:17:50.447Z,3.17
2022-07-29T16:20:18.734Z,3.10
2022-07-29T16:22:46.884Z,3.38
2022-07-29T16:25:16.850Z,3.10
2022-07-29T16:27:45.065Z,3.42
2022-07-29T16:30:13.972Z,3.88
2022-07-29T16:32:42.234Z,3.50
2022-07-29T16:35:11.125Z,3.25
2022-07-29T16:37:39.790Z,3.30
2022-07-29T16:40:11.669Z,3.72
2022-07-29T16:42:46.976Z,3.55
2022-07-29T16:45:16.050Z,3.50
2022-07-29T16:47:44.366Z,3.63
2022-07-29T16:50:12.767Z,3.70
2022-07-29T16:52:41.292Z,3.40
2022-07-29T16:55:10.013Z,3.92
2022-07-29T16:57:38.257Z,3.42
2022-07-29T17:00:09.503Z,3.63
2022-07-29T17:02:38.782Z,3.50
2022-07-29T17:05:08.268Z,3.85
2022-07-29T17:07:36.498Z,3.83
2022-07-29T17:10:05.594Z,3.85
2022-07-29T17:12:33.906Z,4.00
2022-07-29T17:15:02.374Z,4.03
2022-07-29T17:17:39.298Z,3.80
2022-07-29T17:20:20.726Z,3.80
2022-07-29T17:22:49.046Z,4.00
2022-07-29T17:25:20.664Z,4.03
2022-07-29T17:27:49.750Z,3.95
2022-07-29T17:30:17.974Z,4.35
2022-07-29T17:32:47.622Z,4.53
2022-07-29T17:35:33.398Z,3.70
2022-07-29T17:38:01.641Z,4.30
2022-07-29T17:40:29.878Z,4.40
2022-07-29T17:42:58.087Z,5.38
2022-07-29T17:45:26.372Z,4.78
2022-07-29T17:48:15.929Z,4.60
2022-07-29T17:50:44.278Z,5.03
2022-07-29T17:53:16.355Z,5.60
2022-07-29T17:55:46.505Z,6.03
2022-07-29T17:58:14.801Z,5.18
2022-07-29T18:00:43.156Z,5.45
2022-07-29T18:03:11.510Z,5.40
2022-07-29T18:05:41.420Z,5.95
2022-07-29T18:08:09.668Z,5.53
2022-07-29T18:10:38.042Z,5.95
2022-07-29T18:13:06.443Z,6.78
2022-07-29T18:15:34.739Z,7.07
2022-07-29T18:18:02.978Z,6.90
2022-07-29T18:20:31.279Z,7.57
2022-07-29T18:23:00.876Z,7.63
2022-07-29T18:25:30.085Z,6.95
2022-07-29T18:28:00.522Z,7.15
2022-07-29T18:30:29.238Z,7.07
2022-07-29T18:33:19.792Z,7.18
2022-07-29T18:35:45.756Z,7.30
2022-07-29T18:38:15.469Z,6.22
2022-07-29T18:40:45.768Z,7.80
2022-07-29T18:43:14.617Z,7.25
2022-07-29T18:45:42.994Z,6.70
2022-07-29T18:48:13.155Z,7.88
2022-07-29T18:50:42.174Z,6.60
2022-07-29T18:53:10.442Z,6.70
2022-07-29T18:55:40.238Z,6.53
2022-07-29T18:58:08.477Z,6.90
2022-07-29T19:00:36.815Z,6.07
2022-07-29T19:03:05.280Z,5.90
2022-07-29T19:05:33.748Z,6.55
2022-07-29T19:08:02.073Z,6.72
2022-07-29T19:10:30.526Z,6.80
2022-07-29T19:13:00.111Z,6.10
2022-07-29T19:15:28.539Z,6.40
2022-07-29T19:18:01.030Z,6.38
2022-07-29T19:20:29.772Z,5.93
2022-07-29T19:22:58.600Z,5.97
2022-07-29T19:25:27.124Z,6.25
2022-07-29T19:27:55.332Z,6.50
2022-07-29T19:30:24.866Z,6.40
2022-07-29T19:32:53.119Z,6.28
2022-07-29T19:35:31.346Z,6.75
2022-07-29T19:38:00.665Z,6.88
2022-07-29T19:40:29.879Z,6.88
2022-07-29T19:42:58.142Z,6.53
2022-07-29T19:45:28.965Z,7.13
2022-07-29T19:48:01.351Z,7.22
2022-07-29T19:50:30.082Z,8.00
2022-07-29T19:52:58.354Z,7.15
2022-07-29T19:55:26.693Z,7.07
2022-07-29T19:57:54.858Z,7.47
2022-07-29T20:00:23.921Z,7.53
2022-07-29T20:02:53.983Z,8.13
2022-07-29T20:05:22.233Z,8.10
2022-07-29T20:07:56.590Z,8.52
2022-07-29T20:10:24.910Z,8.38
2022-07-29T20:12:55.014Z,8.43
2022-07-29T20:15:23.650Z,9.07
2022-07-29T20:17:57.213Z,9.50
2022-07-29T20:20:26.445Z,8.60
2022-07-29T20:23:08.832Z,8.57
2022-07-29T20:25:37.024Z,9.23
2022-07-29T20:28:05.946Z,9.25
2022-07-29T20:30:34.256Z,8.75
2022-07-29T20:33:08.047Z,8.95
2022-07-29T20:35:36.571Z,8.98
2022-07-29T20:38:04.828Z,10.27
2022-07-29T20:40:33.136Z,10.60
2022-07-29T20:43:01.371Z,9.68
2022-07-29T20:45:29.847Z,9.13
2022-07-29T20:47:58.541Z,10.40
2022-07-29T20:50:28.718Z,9.38
2022-07-29T20:52:56.906Z,10.90
2022-07-29T20:55:25.142Z,10.13
2022-07-29T20:57:53.578Z,9.57
2022-07-29T21:00:21.753Z,9.57
2022-07-29T21:02:50.050Z,9.32
2022-07-29T21:05:18.394Z,8.13
2022-07-29T21:07:47.977Z,8.40
2022-07-29T21:10:18.436Z,7.25
2022-07-29T21:12:47.399Z,7.47
2022-07-29T21:15:16.380Z,7.10
2022-07-29T21:17:48.070Z,7.30
2022-07-29T21:20:17.042Z,6.82
2022-07-29T21:22:45.372Z,6.55
2022-07-29T21:25:15.033Z,6.35
2022-07-29T21:28:00.920Z,5.70
2022-07-29T21:30:29.085Z,5.88
2022-07-29T21:32:57.547Z,5.32
2022-07-29T21:35:45.270Z,5.28
2022-07-29T21:38:16.401Z,4.65
2022-07-29T21:40:46.156Z,4.57
2022-07-29T21:43:14.665Z,5.33
2022-07-29T21:45:43.885Z,5.57
2022-07-29T21:48:12.136Z,5.53
2022-07-29T21:50:40.387Z,5.50
2022-07-29T21:53:08.651Z,5.43
2022-07-29T21:55:40.955Z,5.32
2022-07-29T21:58:11.442Z,5.70
2022-07-29T22:00:39.658Z,5.33
2022-07-29T22:03:07.912Z,6.10
2022-07-29T22:05:36.175Z,6.80
2022-07-29T22:08:04.986Z,5.90
2022-07-29T22:10:33.790Z,7.00
2022-07-29T22:13:02.307Z,6.53
2022-07-29T22:15:32.410Z,7.03
2022-07-29T22:18:00.644Z,6.73
2022-07-29T22:20:29.101Z,6.37
2022-07-29T22:22:57.367Z,6.90
2022-07-29T22:25:25.971Z,6.53
2022-07-29T22:27:54.242Z,8.67
2022-07-29T22:30:22.517Z,6.70
2022-07-29T22:32:52.091Z,6.20
2022-07-29T22:35:20.492Z,6.93
2022-07-29T22:37:48.929Z,6.23
2022-07-29T22:40:17.118Z,6.33
2022-07-29T22:42:45.355Z,5.93
2022-07-29T22:45:13.564Z,5.63
2022-07-29T22:47:48.256Z,5.10
2022-07-29T22:50:18.245Z,5.60
2022-07-29T22:52:47.053Z,5.70
2022-07-29T22:55:15.331Z,6.17
2022-07-29T22:57:43.508Z,5.73
2022-07-29T23:00:12.888Z,5.97
2022-07-29T23:02:41.837Z,5.17
2022-07-29T23:05:10.823Z,5.50
2022-07-29T23:07:40.430Z,5.03
2022-07-29T23:10:09.545Z,4.90
2022-07-29T23:12:37.710Z,5.10
2022-07-29T23:15:06.391Z,5.00
2022-07-29T23:17:36.079Z,4.43
2022-07-29T23:20:06.193Z,4.40
2022-07-29T23:22:34.422Z,4.73
2022-07-29T23:25:04.075Z,4.60
2022-07-29T23:27:32.343Z,4.77
2022-07-29T23:30:00.569Z,4.93
2022-07-29T23:32:28.792Z,4.47
2022-07-29T23:34:57.310Z,5.03
2022-07-29T23:37:26.898Z,5.00
2022-07-29T23:39:55.499Z,4.90
2022-07-29T23:42:25.127Z,5.80
2022-07-29T23:44:53.596Z,4.80
2022-07-29T23:47:21.843Z,5.03
2022-07-29T23:49:50.268Z,4.77
2022-07-29T23:52:18.548Z,4.40
2022-07-29T23:54:46.796Z,4.40
2022-07-29T23:57:15.524Z,4.43
2022-07-29T23:59:45.213Z,4.53
